This is the latest recevied weather packets stored in our database for station/object DL9GRB-13. If no packets are shown the sender has not sent any weather packets the latest 1 day(s).
| Time | Temp. | Humidity | Pressure | Rain* | Wind** | Luminosity | Snow |
|---|---|---|---|---|---|---|---|
| 1836274730 | 14.44° C | 92% | 1014.2 hPa | 0 mm | 0 m/s | 0 W/m² | - |
| 1836274550 | 14.44° C | 93% | 1014 hPa | 0 mm | 3.13 m/s, 182° | 0 W/m² | - |
| 1836274520 | 15° C | 91% | 1013.9 hPa | 0.51 mm | 3.58 m/s, 133° | 0 W/m² | - |
| 1836274370 | 14.44° C | 93% | 1014.1 hPa | 0 mm | 0 m/s | 0 W/m² | - |
| 1836274340 | 15° C | 91% | 1014 hPa | 0.51 mm | 0 m/s | 0 W/m² | - |
| 1836274190 | 14.44° C | 94% | 1013.8 hPa | 0.51 mm | 2.68 m/s, 201° | 0 W/m² | - |
| 1836274160 | 15° C | 92% | 1013.9 hPa | 0.51 mm | 3.58 m/s, 180° | 0 W/m² | - |
| 1836274010 | 14.44° C | 94% | 1014 hPa | 0.51 mm | 2.24 m/s, 160° | 0 W/m² | - |
| 1778022608 | 5° C | 86% | 1008.7 hPa | 0 mm | 2.68 m/s, 84° | 0 W/m² | - |
| 1778022428 | 5° C | 86% | 1008.9 hPa | 0 mm | 0 m/s | 0 W/m² | - |
| 1778022248 | 5.56° C | 86% | 1008.8 hPa | 0 mm | 0 m/s | 0 W/m² | - |
| 1778022068 | 5.56° C | 86% | 1008.9 hPa | 0 mm | 2.24 m/s, 76° | 0 W/m² | - |
| 1778021888 | 5.56° C | 86% | 1008.8 hPa | 0 mm | 0 m/s | 0 W/m² | - |
| 1778021708 | 5.56° C | 86% | 1008.9 hPa | 0 mm | 0 m/s | 0 W/m² | - |
| 1778021528 | 5.56° C | 87% | 1009.2 hPa | 0 mm | 1.79 m/s, 63° | 0 W/m² | - |
| 1778021348 | 5.56° C | 87% | 1009 hPa | 0 mm | 1.79 m/s, 80° | 0 W/m² | - |
| 1778021168 | 5.56° C | 87% | 1009 hPa | 0 mm | 2.68 m/s, 114° | 0 W/m² | - |
| 1778020988 | 6.11° C | 86% | 1009 hPa | 0 mm | 0 m/s | 0 W/m² | - |
| 1778020808 | 6.11° C | 86% | 1009.1 hPa | 0 mm | 3.13 m/s, 76° | 0 W/m² | - |
| 1778020628 | 6.11° C | 85% | 1009.1 hPa | 0 mm | 0 m/s | 0 W/m² | - |
| 1778020448 | 6.11° C | 86% | 1009.2 hPa | 0 mm | 3.13 m/s, 81° | 0 W/m² | - |
| 1778020268 | 6.11° C | 86% | 1009 hPa | 0 mm | 0 m/s | 0 W/m² | - |
| 1778020088 | 6.11° C | 85% | 1009.1 hPa | 0 mm | 0 m/s | 0 W/m² | - |
| 1778019908 | 6.11° C | 85% | 1009.2 hPa | 0 mm | 1.79 m/s, 89° | 0 W/m² | - |
| 1778019728 | 6.67° C | 85% | 1009.1 hPa | 0 mm | 1.79 m/s, 98° | 0 W/m² | - |
* Rain latest hour (hover to see other rain measurements)
** Current wind speed in m/s (hover to see current wind gust speed)